sensor_id;sensor_type;location;lat;lon;timestamp;temperature;humidity
65864;SHT30;52639;51.180;20.460;2023-07-13T00:02:21;17.44;89.48
65864;SHT30;52639;51.180;20.460;2023-07-13T00:06:24;17.40;89.63
65864;SHT30;52639;51.180;20.460;2023-07-13T00:10:27;17.41;89.62
65864;SHT30;52639;51.180;20.460;2023-07-13T00:14:29;17.41;89.65
65864;SHT30;52639;51.180;20.460;2023-07-13T00:18:34;17.28;89.82
65864;SHT30;52639;51.180;20.460;2023-07-13T00:22:36;17.35;89.89
65864;SHT30;52639;51.180;20.460;2023-07-13T00:26:40;17.35;89.91
65864;SHT30;52639;51.180;20.460;2023-07-13T00:30:46;17.41;89.83
65864;SHT30;52639;51.180;20.460;2023-07-13T00:34:50;17.42;89.76
65864;SHT30;52639;51.180;20.460;2023-07-13T00:38:53;17.35;89.89
65864;SHT30;52639;51.180;20.460;2023-07-13T00:42:58;17.38;90.05
65864;SHT30;52639;51.180;20.460;2023-07-13T00:47:01;17.34;90.07
65864;SHT30;52639;51.180;20.460;2023-07-13T00:51:05;17.38;90.08
65864;SHT30;52639;51.180;20.460;2023-07-13T00:55:09;17.37;90.11
65864;SHT30;52639;51.180;20.460;2023-07-13T00:59:15;17.38;90.05
65864;SHT30;52639;51.180;20.460;2023-07-13T01:03:20;17.37;90.11
65864;SHT30;52639;51.180;20.460;2023-07-13T01:07:25;17.31;90.26
65864;SHT30;52639;51.180;20.460;2023-07-13T01:11:28;17.27;90.39
65864;SHT30;52639;51.180;20.460;2023-07-13T01:15:36;17.32;90.39
65864;SHT30;52639;51.180;20.460;2023-07-13T01:19:42;17.30;90.38
65864;SHT30;52639;51.180;20.460;2023-07-13T01:23:47;17.24;90.52
65864;SHT30;52639;51.180;20.460;2023-07-13T01:27:50;17.16;90.62
65864;SHT30;52639;51.180;20.460;2023-07-13T01:31:53;17.19;90.70
65864;SHT30;52639;51.180;20.460;2023-07-13T01:35:56;17.13;90.73
65864;SHT30;52639;51.180;20.460;2023-07-13T01:40:01;17.11;90.75
65864;SHT30;52639;51.180;20.460;2023-07-13T01:44:04;17.04;90.84
65864;SHT30;52639;51.180;20.460;2023-07-13T01:48:07;17.00;90.96
65864;SHT30;52639;51.180;20.460;2023-07-13T01:52:10;16.94;90.98
65864;SHT30;52639;51.180;20.460;2023-07-13T01:56:14;16.97;91.07
65864;SHT30;52639;51.180;20.460;2023-07-13T02:00:18;16.99;90.93
65864;SHT30;52639;51.180;20.460;2023-07-13T02:04:21;16.93;90.95
65864;SHT30;52639;51.180;20.460;2023-07-13T02:08:23;16.89;90.96
65864;SHT30;52639;51.180;20.460;2023-07-13T02:12:28;16.89;91.02
65864;SHT30;52639;51.180;20.460;2023-07-13T02:16:31;16.86;91.03
65864;SHT30;52639;51.180;20.460;2023-07-13T02:20:33;16.80;91.04
65864;SHT30;52639;51.180;20.460;2023-07-13T02:24:38;16.77;91.09
65864;SHT30;52639;51.180;20.460;2023-07-13T02:28:42;16.70;91.13
65864;SHT30;52639;51.180;20.460;2023-07-13T02:32:45;16.63;91.20
65864;SHT30;52639;51.180;20.460;2023-07-13T02:36:48;16.60;91.13
65864;SHT30;52639;51.180;20.460;2023-07-13T02:40:51;16.46;91.20
65864;SHT30;52639;51.180;20.460;2023-07-13T02:44:56;16.48;91.33
65864;SHT30;52639;51.180;20.460;2023-07-13T02:48:59;16.42;91.21
65864;SHT30;52639;51.180;20.460;2023-07-13T02:53:02;16.39;91.25
65864;SHT30;52639;51.180;20.460;2023-07-13T02:57:06;16.30;91.24
65864;SHT30;52639;51.180;20.460;2023-07-13T03:01:12;16.32;91.26
65864;SHT30;52639;51.180;20.460;2023-07-13T03:05:20;16.29;91.20
65864;SHT30;52639;51.180;20.460;2023-07-13T03:09:23;16.39;91.01
65864;SHT30;52639;51.180;20.460;2023-07-13T03:13:25;16.55;90.78
65864;SHT30;52639;51.180;20.460;2023-07-13T03:17:30;16.59;90.62
65864;SHT30;52639;51.180;20.460;2023-07-13T03:21:33;16.65;90.74
65864;SHT30;52639;51.180;20.460;2023-07-13T03:25:35;16.72;90.76
65864;SHT30;52639;51.180;20.460;2023-07-13T03:29:38;16.91;90.35
65864;SHT30;52639;51.180;20.460;2023-07-13T03:33:43;17.07;90.10
65864;SHT30;52639;51.180;20.460;2023-07-13T03:37:46;17.11;90.16
65864;SHT30;52639;51.180;20.460;2023-07-13T03:41:49;17.24;90.08
65864;SHT30;52639;51.180;20.460;2023-07-13T03:45:51;17.51;89.57
65864;SHT30;52639;51.180;20.460;2023-07-13T03:49:56;17.79;88.95
65864;SHT30;52639;51.180;20.460;2023-07-13T03:53:59;18.19;88.48
65864;SHT30;52639;51.180;20.460;2023-07-13T03:58:25;18.61;87.99
65864;SHT30;52639;51.180;20.460;2023-07-13T04:02:28;18.86;87.58
65864;SHT30;52639;51.180;20.460;2023-07-13T04:06:32;19.17;87.44
65864;SHT30;52639;51.180;20.460;2023-07-13T04:10:35;19.44;87.09
65864;SHT30;52639;51.180;20.460;2023-07-13T04:14:38;19.38;87.67
65864;SHT30;52639;51.180;20.460;2023-07-13T04:18:41;19.68;87.48
65864;SHT30;52639;51.180;20.460;2023-07-13T04:22:45;19.88;87.22
65864;SHT30;52639;51.180;20.460;2023-07-13T04:26:48;19.74;87.86
65864;SHT30;52639;51.180;20.460;2023-07-13T04:30:51;19.58;88.55
65864;SHT30;52639;51.180;20.460;2023-07-13T04:34:54;19.50;88.95
65864;SHT30;52639;51.180;20.460;2023-07-13T04:39:00;19.43;89.17
65864;SHT30;52639;51.180;20.460;2023-07-13T04:43:03;19.13;89.84
65864;SHT30;52639;51.180;20.460;2023-07-13T04:47:05;19.08;89.99
65864;SHT30;52639;51.180;20.460;2023-07-13T04:51:09;19.03;89.99
65864;SHT30;52639;51.180;20.460;2023-07-13T04:55:13;19.04;89.88
65864;SHT30;52639;51.180;20.460;2023-07-13T04:59:16;19.20;89.54
65864;SHT30;52639;51.180;20.460;2023-07-13T05:03:19;19.47;88.88
65864;SHT30;52639;51.180;20.460;2023-07-13T05:07:22;19.64;88.54
65864;SHT30;52639;51.180;20.460;2023-07-13T05:11:26;19.59;88.69
65864;SHT30;52639;51.180;20.460;2023-07-13T05:15:29;19.44;89.14
65864;SHT30;52639;51.180;20.460;2023-07-13T05:19:32;19.44;89.23
65864;SHT30;52639;51.180;20.460;2023-07-13T05:23:35;19.54;89.02
65864;SHT30;52639;51.180;20.460;2023-07-13T05:27:40;19.54;89.11
65864;SHT30;52639;51.180;20.460;2023-07-13T05:31:42;19.53;89.14
65864;SHT30;52639;51.180;20.460;2023-07-13T05:35:45;19.43;89.33
65864;SHT30;52639;51.180;20.460;2023-07-13T05:39:49;19.47;89.32
65864;SHT30;52639;51.180;20.460;2023-07-13T05:43:53;19.48;89.19
65864;SHT30;52639;51.180;20.460;2023-07-13T05:47:56;19.64;88.90
65864;SHT30;52639;51.180;20.460;2023-07-13T05:51:59;19.72;88.65
65864;SHT30;52639;51.180;20.460;2023-07-13T05:56:01;19.69;88.71
65864;SHT30;52639;51.180;20.460;2023-07-13T06:00:07;19.59;88.84
65864;SHT30;52639;51.180;20.460;2023-07-13T06:04:10;19.53;88.88
65864;SHT30;52639;51.180;20.460;2023-07-13T06:08:13;19.47;88.97
65864;SHT30;52639;51.180;20.460;2023-07-13T06:12:16;19.53;88.84
65864;SHT30;52639;51.180;20.460;2023-07-13T06:16:20;19.54;88.58
65864;SHT30;52639;51.180;20.460;2023-07-13T06:20:24;19.54;88.51
65864;SHT30;52639;51.180;20.460;2023-07-13T06:24:28;19.55;88.46
65864;SHT30;52639;51.180;20.460;2023-07-13T06:28:31;19.68;88.00
65864;SHT30;52639;51.180;20.460;2023-07-13T06:32:36;19.86;87.51
65864;SHT30;52639;51.180;20.460;2023-07-13T06:36:39;20.23;86.68
65864;SHT30;52639;51.180;20.460;2023-07-13T06:40:42;20.32;86.68
65864;SHT30;52639;51.180;20.460;2023-07-13T06:44:45;20.37;86.84
65864;SHT30;52639;51.180;20.460;2023-07-13T06:48:49;20.28;87.44
65864;SHT30;52639;51.180;20.460;2023-07-13T06:52:52;20.20;87.71
65864;SHT30;52639;51.180;20.460;2023-07-13T06:56:55;19.93;88.54
65864;SHT30;52639;51.180;20.460;2023-07-13T07:00:59;20.13;88.15
65864;SHT30;52639;51.180;20.460;2023-07-13T07:05:05;20.43;87.43
65864;SHT30;52639;51.180;20.460;2023-07-13T07:09:08;20.77;86.82
65864;SHT30;52639;51.180;20.460;2023-07-13T07:13:12;21.21;86.12
65864;SHT30;52639;51.180;20.460;2023-07-13T07:17:16;21.95;84.84
65864;SHT30;52639;51.180;20.460;2023-07-13T07:21:22;22.26;84.20
65864;SHT30;52639;51.180;20.460;2023-07-13T07:25:25;22.68;83.39
65864;SHT30;52639;51.180;20.460;2023-07-13T07:29:29;24.01;80.55
65864;SHT30;52639;51.180;20.460;2023-07-13T07:33:35;28.50;69.72
65864;SHT30;52639;51.180;20.460;2023-07-13T07:37:41;31.12;64.82
65864;SHT30;52639;51.180;20.460;2023-07-13T07:41:47;30.44;67.66
65864;SHT30;52639;51.180;20.460;2023-07-13T07:45:50;31.76;65.28
65864;SHT30;52639;51.180;20.460;2023-07-13T07:49:54;32.19;64.85
65864;SHT30;52639;51.180;20.460;2023-07-13T07:53:58;32.59;63.92
65864;SHT30;52639;51.180;20.460;2023-07-13T07:58:02;32.27;64.61
65864;SHT30;52639;51.180;20.460;2023-07-13T08:02:08;30.63;68.26
65864;SHT30;52639;51.180;20.460;2023-07-13T08:06:14;30.83;66.12
65864;SHT30;52639;51.180;20.460;2023-07-13T08:10:19;32.70;60.96
65864;SHT30;52639;51.180;20.460;2023-07-13T08:14:22;32.37;61.96
65864;SHT30;52639;51.180;20.460;2023-07-13T08:18:25;31.78;63.05
65864;SHT30;52639;51.180;20.460;2023-07-13T08:22:29;32.27;61.45
65864;SHT30;52639;51.180;20.460;2023-07-13T08:26:34;30.99;62.58
65864;SHT30;52639;51.180;20.460;2023-07-13T08:30:37;29.01;66.18
65864;SHT30;52639;51.180;20.460;2023-07-13T08:34:40;28.71;66.36
65864;SHT30;52639;51.180;20.460;2023-07-13T08:38:43;28.35;66.21
65864;SHT30;52639;51.180;20.460;2023-07-13T08:42:52;28.06;67.18
65864;SHT30;52639;51.180;20.460;2023-07-13T08:46:58;28.21;66.62
65864;SHT30;52639;51.180;20.460;2023-07-13T08:51:21;28.06;66.31
65864;SHT30;52639;51.180;20.460;2023-07-13T08:55:33;27.89;67.44
65864;SHT30;52639;51.180;20.460;2023-07-13T08:59:41;28.23;67.00
65864;SHT30;52639;51.180;20.460;2023-07-13T09:03:50;27.98;66.90
65864;SHT30;52639;51.180;20.460;2023-07-13T09:08:09;27.81;66.13
65864;SHT30;52639;51.180;20.460;2023-07-13T09:12:26;28.08;64.99
65864;SHT30;52639;51.180;20.460;2023-07-13T09:16:35;28.61;64.01
65864;SHT30;52639;51.180;20.460;2023-07-13T09:20:47;29.10;62.47
65864;SHT30;52639;51.180;20.460;2023-07-13T09:25:04;28.94;62.95
65864;SHT30;52639;51.180;20.460;2023-07-13T09:29:15;29.15;62.52
65864;SHT30;52639;51.180;20.460;2023-07-13T09:33:23;29.39;62.29
65864;SHT30;52639;51.180;20.460;2023-07-13T09:37:31;29.88;61.00
65864;SHT30;52639;51.180;20.460;2023-07-13T09:41:43;30.02;61.04
65864;SHT30;52639;51.180;20.460;2023-07-13T09:45:48;29.58;62.14
65864;SHT30;52639;51.180;20.460;2023-07-13T09:49:57;29.82;62.05
65864;SHT30;52639;51.180;20.460;2023-07-13T09:54:00;30.12;61.57
65864;SHT30;52639;51.180;20.460;2023-07-13T09:58:15;29.38;62.72
65864;SHT30;52639;51.180;20.460;2023-07-13T10:02:31;29.03;62.98
65864;SHT30;52639;51.180;20.460;2023-07-13T10:06:40;29.28;61.46
65864;SHT30;52639;51.180;20.460;2023-07-13T10:10:43;29.39;61.36
65864;SHT30;52639;51.180;20.460;2023-07-13T10:14:48;29.38;61.35
65864;SHT30;52639;51.180;20.460;2023-07-13T10:18:55;28.33;63.48
65864;SHT30;52639;51.180;20.460;2023-07-13T10:23:02;27.03;66.03
65864;SHT30;52639;51.180;20.460;2023-07-13T10:27:15;27.11;64.98
65864;SHT30;52639;51.180;20.460;2023-07-13T10:31:20;26.76;65.33
65864;SHT30;52639;51.180;20.460;2023-07-13T10:35:25;27.39;63.31
65864;SHT30;52639;51.180;20.460;2023-07-13T10:39:31;27.25;63.24
65864;SHT30;52639;51.180;20.460;2023-07-13T10:43:48;27.68;62.84
65864;SHT30;52639;51.180;20.460;2023-07-13T10:48:19;27.45;63.07
65864;SHT30;52639;51.180;20.460;2023-07-13T10:52:44;27.27;63.01
65864;SHT30;52639;51.180;20.460;2023-07-13T10:56:52;27.01;63.02
65864;SHT30;52639;51.180;20.460;2023-07-13T11:01:01;26.23;64.56
65864;SHT30;52639;51.180;20.460;2023-07-13T11:05:22;26.25;63.90
65864;SHT30;52639;51.180;20.460;2023-07-13T11:09:36;26.10;63.88
65864;SHT30;52639;51.180;20.460;2023-07-13T11:13:59;26.05;63.45
65864;SHT30;52639;51.180;20.460;2023-07-13T11:18:20;25.97;63.51
65864;SHT30;52639;51.180;20.460;2023-07-13T11:22:41;25.86;63.88
65864;SHT30;52639;51.180;20.460;2023-07-13T11:26:52;25.25;64.84
65864;SHT30;52639;51.180;20.460;2023-07-13T11:31:16;24.91;65.52
65864;SHT30;52639;51.180;20.460;2023-07-13T11:35:26;24.70;66.20
65864;SHT30;52639;51.180;20.460;2023-07-13T11:39:35;24.40;66.81
65864;SHT30;52639;51.180;20.460;2023-07-13T11:43:42;24.64;66.40
65864;SHT30;52639;51.180;20.460;2023-07-13T11:47:46;24.41;66.67
65864;SHT30;52639;51.180;20.460;2023-07-13T11:51:49;24.20;67.02
65864;SHT30;52639;51.180;20.460;2023-07-13T11:55:55;23.68;67.77
65864;SHT30;52639;51.180;20.460;2023-07-13T12:00:00;23.41;67.42
65864;SHT30;52639;51.180;20.460;2023-07-13T12:04:19;22.81;66.93
65864;SHT30;52639;51.180;20.460;2023-07-13T12:08:24;22.30;66.99
65864;SHT30;52639;51.180;20.460;2023-07-13T12:12:29;22.47;66.44
65864;SHT30;52639;51.180;20.460;2023-07-13T12:16:33;22.13;66.84
65864;SHT30;52639;51.180;20.460;2023-07-13T12:20:38;21.92;66.62
65864;SHT30;52639;51.180;20.460;2023-07-13T12:24:42;21.62;66.56
65864;SHT30;52639;51.180;20.460;2023-07-13T12:28:48;21.28;67.57
65864;SHT30;52639;51.180;20.460;2023-07-13T12:33:00;21.21;67.34
65864;SHT30;52639;51.180;20.460;2023-07-13T12:37:11;21.17;67.21
65864;SHT30;52639;51.180;20.460;2023-07-13T12:41:22;20.95;67.67
65864;SHT30;52639;51.180;20.460;2023-07-13T12:45:27;20.80;68.29
65864;SHT30;52639;51.180;20.460;2023-07-13T12:49:42;20.34;69.67
65864;SHT30;52639;51.180;20.460;2023-07-13T12:53:57;20.06;70.14
65864;SHT30;52639;51.180;20.460;2023-07-13T12:58:04;19.50;71.27
65864;SHT30;52639;51.180;20.460;2023-07-13T13:02:25;19.37;71.30
65864;SHT30;52639;51.180;20.460;2023-07-13T13:06:33;19.17;71.60
65864;SHT30;52639;51.180;20.460;2023-07-13T13:10:52;18.84;72.42
65864;SHT30;52639;51.180;20.460;2023-07-13T13:14:57;18.39;73.15
65864;SHT30;52639;51.180;20.460;2023-07-13T13:19:15;18.01;73.62
65864;SHT30;52639;51.180;20.460;2023-07-13T13:23:22;18.09;73.41
65864;SHT30;52639;51.180;20.460;2023-07-13T13:27:28;18.38;72.59
65864;SHT30;52639;51.180;20.460;2023-07-13T13:31:38;18.50;72.40
65864;SHT30;52639;51.180;20.460;2023-07-13T13:35:42;18.26;73.55
65864;SHT30;52639;51.180;20.460;2023-07-13T13:39:46;18.09;74.44
65864;SHT30;52639;51.180;20.460;2023-07-13T13:44:00;18.13;74.01
65864;SHT30;52639;51.180;20.460;2023-07-13T13:48:14;18.21;73.62
65864;SHT30;52639;51.180;20.460;2023-07-13T13:52:18;18.16;73.98
65864;SHT30;52639;51.180;20.460;2023-07-13T13:56:21;18.21;74.42
65864;SHT30;52639;51.180;20.460;2023-07-13T14:00:25;18.18;74.65
65864;SHT30;52639;51.180;20.460;2023-07-13T14:04:28;18.16;74.81
65864;SHT30;52639;51.180;20.460;2023-07-13T14:08:30;18.13;75.34
65864;SHT30;52639;51.180;20.460;2023-07-13T14:12:33;18.15;75.58
65864;SHT30;52639;51.180;20.460;2023-07-13T14:16:40;18.12;76.15
65864;SHT30;52639;51.180;20.460;2023-07-13T14:20:48;18.26;76.07
65864;SHT30;52639;51.180;20.460;2023-07-13T14:25:08;18.35;76.40
65864;SHT30;52639;51.180;20.460;2023-07-13T14:29:14;18.26;76.91
65864;SHT30;52639;51.180;20.460;2023-07-13T14:33:19;18.06;77.80
65864;SHT30;52639;51.180;20.460;2023-07-13T14:37:23;17.70;78.97
65864;SHT30;52639;51.180;20.460;2023-07-13T14:41:27;17.48;79.54
65864;SHT30;52639;51.180;20.460;2023-07-13T14:45:30;17.54;79.44
65864;SHT30;52639;51.180;20.460;2023-07-13T14:49:37;17.81;78.63
65864;SHT30;52639;51.180;20.460;2023-07-13T14:53:40;18.02;78.26
65864;SHT30;52639;51.180;20.460;2023-07-13T14:57:43;18.48;77.22
65864;SHT30;52639;51.180;20.460;2023-07-13T15:01:48;18.53;77.38
65864;SHT30;52639;51.180;20.460;2023-07-13T15:05:53;18.49;77.81
65864;SHT30;52639;51.180;20.460;2023-07-13T15:09:56;18.59;77.50
65864;SHT30;52639;51.180;20.460;2023-07-13T15:13:59;18.43;78.02
65864;SHT30;52639;51.180;20.460;2023-07-13T15:18:02;18.24;78.63
65864;SHT30;52639;51.180;20.460;2023-07-13T15:22:09;18.08;79.19
65864;SHT30;52639;51.180;20.460;2023-07-13T15:26:13;18.05;78.99
65864;SHT30;52639;51.180;20.460;2023-07-13T15:30:17;17.94;79.17
65864;SHT30;52639;51.180;20.460;2023-07-13T15:34:25;18.08;79.11
65864;SHT30;52639;51.180;20.460;2023-07-13T15:38:39;17.94;79.81
65864;SHT30;52639;51.180;20.460;2023-07-13T15:42:48;17.86;80.34
65864;SHT30;52639;51.180;20.460;2023-07-13T15:46:53;17.74;80.80
65864;SHT30;52639;51.180;20.460;2023-07-13T15:51:02;17.78;80.95
65864;SHT30;52639;51.180;20.460;2023-07-13T15:55:20;17.81;81.23
65864;SHT30;52639;51.180;20.460;2023-07-13T15:59:26;17.82;81.27
65864;SHT30;52639;51.180;20.460;2023-07-13T16:03:39;17.86;81.32
65864;SHT30;52639;51.180;20.460;2023-07-13T16:07:45;17.89;81.17
65864;SHT30;52639;51.180;20.460;2023-07-13T16:11:58;18.08;80.93
65864;SHT30;52639;51.180;20.460;2023-07-13T16:16:09;18.30;80.74
65864;SHT30;52639;51.180;20.460;2023-07-13T16:20:21;18.42;80.57
65864;SHT30;52639;51.180;20.460;2023-07-13T16:24:38;18.42;80.79
65864;SHT30;52639;51.180;20.460;2023-07-13T16:29:02;18.33;81.16
65864;SHT30;52639;51.180;20.460;2023-07-13T16:33:05;18.50;80.99
65864;SHT30;52639;51.180;20.460;2023-07-13T16:37:14;18.48;81.23
65864;SHT30;52639;51.180;20.460;2023-07-13T16:41:17;18.28;81.67
65864;SHT30;52639;51.180;20.460;2023-07-13T16:45:23;18.19;81.97
65864;SHT30;52639;51.180;20.460;2023-07-13T16:49:29;18.16;82.01
65864;SHT30;52639;51.180;20.460;2023-07-13T16:53:33;18.25;81.79
65864;SHT30;52639;51.180;20.460;2023-07-13T16:57:36;18.42;81.27
65864;SHT30;52639;51.180;20.460;2023-07-13T17:01:42;18.56;80.79
65864;SHT30;52639;51.180;20.460;2023-07-13T17:05:46;18.90;80.16
65864;SHT30;52639;51.180;20.460;2023-07-13T17:09:50;18.99;80.05
65864;SHT30;52639;51.180;20.460;2023-07-13T17:13:54;19.13;79.75
65864;SHT30;52639;51.180;20.460;2023-07-13T17:18:01;19.20;79.82
65864;SHT30;52639;51.180;20.460;2023-07-13T17:22:09;19.10;80.08
65864;SHT30;52639;51.180;20.460;2023-07-13T17:26:19;18.94;80.57
65864;SHT30;52639;51.180;20.460;2023-07-13T17:30:22;18.45;81.70
65864;SHT30;52639;51.180;20.460;2023-07-13T17:34:28;18.12;82.66
65864;SHT30;52639;51.180;20.460;2023-07-13T17:38:36;17.88;83.24
65864;SHT30;52639;51.180;20.460;2023-07-13T17:42:42;17.67;83.61
65864;SHT30;52639;51.180;20.460;2023-07-13T17:46:47;17.52;83.78
65864;SHT30;52639;51.180;20.460;2023-07-13T17:50:53;17.41;83.98
65864;SHT30;52639;51.180;20.460;2023-07-13T17:54:59;17.19;84.26
65864;SHT30;52639;51.180;20.460;2023-07-13T17:59:04;17.11;84.27
65864;SHT30;52639;51.180;20.460;2023-07-13T18:03:12;17.04;84.37
65864;SHT30;52639;51.180;20.460;2023-07-13T18:07:17;16.93;84.54
65864;SHT30;52639;51.180;20.460;2023-07-13T18:11:24;16.83;84.66
65864;SHT30;52639;51.180;20.460;2023-07-13T18:15:31;16.76;84.75
65864;SHT30;52639;51.180;20.460;2023-07-13T18:19:40;16.59;85.07
65864;SHT30;52639;51.180;20.460;2023-07-13T18:23:46;16.48;85.31
65864;SHT30;52639;51.180;20.460;2023-07-13T18:27:51;16.33;85.50
65864;SHT30;52639;51.180;20.460;2023-07-13T18:31:56;16.26;85.68
65864;SHT30;52639;51.180;20.460;2023-07-13T18:36:02;16.30;85.61
65864;SHT30;52639;51.180;20.460;2023-07-13T18:40:15;16.39;85.56
65864;SHT30;52639;51.180;20.460;2023-07-13T18:44:21;16.43;85.59
65864;SHT30;52639;51.180;20.460;2023-07-13T18:48:26;16.45;85.77
65864;SHT30;52639;51.180;20.460;2023-07-13T18:52:31;16.48;85.96
65864;SHT30;52639;51.180;20.460;2023-07-13T18:56:36;16.41;86.07
65864;SHT30;52639;51.180;20.460;2023-07-13T19:00:42;16.23;86.60
65864;SHT30;52639;51.180;20.460;2023-07-13T19:04:50;16.00;87.09
65864;SHT30;52639;51.180;20.460;2023-07-13T19:09:04;15.78;87.34
65864;SHT30;52639;51.180;20.460;2023-07-13T19:13:16;15.60;87.63
65864;SHT30;52639;51.180;20.460;2023-07-13T19:17:20;15.46;87.72
65864;SHT30;52639;51.180;20.460;2023-07-13T19:21:33;15.43;87.56
65864;SHT30;52639;51.180;20.460;2023-07-13T19:25:41;15.27;87.78
65864;SHT30;52639;51.180;20.460;2023-07-13T19:29:48;15.28;87.61
65864;SHT30;52639;51.180;20.460;2023-07-13T19:33:52;15.14;87.70
65864;SHT30;52639;51.180;20.460;2023-07-13T19:37:59;14.99;88.04
65864;SHT30;52639;51.180;20.460;2023-07-13T19:42:15;14.96;87.97
65864;SHT30;52639;51.180;20.460;2023-07-13T19:46:25;14.99;87.89
65864;SHT30;52639;51.180;20.460;2023-07-13T19:50:33;15.10;87.66
65864;SHT30;52639;51.180;20.460;2023-07-13T19:54:43;15.28;87.40
65864;SHT30;52639;51.180;20.460;2023-07-13T19:58:48;15.24;87.50
65864;SHT30;52639;51.180;20.460;2023-07-13T20:02:57;15.28;87.61
65864;SHT30;52639;51.180;20.460;2023-07-13T20:07:02;15.36;87.66
65864;SHT30;52639;51.180;20.460;2023-07-13T20:11:08;15.41;87.77
65864;SHT30;52639;51.180;20.460;2023-07-13T20:15:18;15.46;87.77
65864;SHT30;52639;51.180;20.460;2023-07-13T20:19:29;15.51;87.91
65864;SHT30;52639;51.180;20.460;2023-07-13T20:23:35;15.54;88.04
65864;SHT30;52639;51.180;20.460;2023-07-13T20:27:39;15.55;88.26
65864;SHT30;52639;51.180;20.460;2023-07-13T20:31:43;15.58;88.31
65864;SHT30;52639;51.180;20.460;2023-07-13T20:35:49;15.57;88.48
65864;SHT30;52639;51.180;20.460;2023-07-13T20:39:52;15.53;88.59
65864;SHT30;52639;51.180;20.460;2023-07-13T20:43:56;15.55;88.64
65864;SHT30;52639;51.180;20.460;2023-07-13T20:48:10;15.55;88.79
65864;SHT30;52639;51.180;20.460;2023-07-13T20:52:18;15.57;88.85
65864;SHT30;52639;51.180;20.460;2023-07-13T20:56:23;15.74;88.67
65864;SHT30;52639;51.180;20.460;2023-07-13T21:00:28;15.77;88.57
65864;SHT30;52639;51.180;20.460;2023-07-13T21:04:32;15.81;88.66
65864;SHT30;52639;51.180;20.460;2023-07-13T21:08:36;15.88;88.68
65864;SHT30;52639;51.180;20.460;2023-07-13T21:12:39;15.88;88.81
65864;SHT30;52639;51.180;20.460;2023-07-13T21:16:42;16.04;88.77
65864;SHT30;52639;51.180;20.460;2023-07-13T21:20:49;16.04;88.81
65864;SHT30;52639;51.180;20.460;2023-07-13T21:24:54;16.05;88.95
65864;SHT30;52639;51.180;20.460;2023-07-13T21:28:57;15.98;89.20
65864;SHT30;52639;51.180;20.460;2023-07-13T21:33:00;15.95;89.40
65864;SHT30;52639;51.180;20.460;2023-07-13T21:37:03;15.91;89.54
65864;SHT30;52639;51.180;20.460;2023-07-13T21:41:18;15.84;89.76
65864;SHT30;52639;51.180;20.460;2023-07-13T21:45:24;15.84;89.85
65864;SHT30;52639;51.180;20.460;2023-07-13T21:49:27;15.80;89.90
65864;SHT30;52639;51.180;20.460;2023-07-13T21:53:32;15.74;90.11
65864;SHT30;52639;51.180;20.460;2023-07-13T21:57:37;15.74;90.06
65864;SHT30;52639;51.180;20.460;2023-07-13T22:01:40;15.75;89.97
65864;SHT30;52639;51.180;20.460;2023-07-13T22:05:44;15.68;89.99
65864;SHT30;52639;51.180;20.460;2023-07-13T22:09:48;15.61;90.17
65864;SHT30;52639;51.180;20.460;2023-07-13T22:13:53;15.51;90.31
65864;SHT30;52639;51.180;20.460;2023-07-13T22:17:56;15.46;90.36
65864;SHT30;52639;51.180;20.460;2023-07-13T22:21:59;15.50;90.30
65864;SHT30;52639;51.180;20.460;2023-07-13T22:26:10;15.41;90.28
65864;SHT30;52639;51.180;20.460;2023-07-13T22:30:17;15.44;90.31
65864;SHT30;52639;51.180;20.460;2023-07-13T22:34:21;15.46;90.29
65864;SHT30;52639;51.180;20.460;2023-07-13T22:38:25;15.44;90.26
65864;SHT30;52639;51.180;20.460;2023-07-13T22:42:29;15.44;90.26
65864;SHT30;52639;51.180;20.460;2023-07-13T22:46:33;15.47;90.15
65864;SHT30;52639;51.180;20.460;2023-07-13T22:50:37;15.43;90.21
65864;SHT30;52639;51.180;20.460;2023-07-13T22:54:40;15.41;90.24
65864;SHT30;52639;51.180;20.460;2023-07-13T22:58:43;15.36;90.33
65864;SHT30;52639;51.180;20.460;2023-07-13T23:02:47;15.31;90.43
65864;SHT30;52639;51.180;20.460;2023-07-13T23:06:50;15.27;90.54
65864;SHT30;52639;51.180;20.460;2023-07-13T23:10:53;15.23;90.50
65864;SHT30;52639;51.180;20.460;2023-07-13T23:15:02;15.04;90.56
65864;SHT30;52639;51.180;20.460;2023-07-13T23:19:15;14.89;90.92
65864;SHT30;52639;51.180;20.460;2023-07-13T23:23:19;14.69;91.02
65864;SHT30;52639;51.180;20.460;2023-07-13T23:27:23;14.49;91.17
65864;SHT30;52639;51.180;20.460;2023-07-13T23:31:28;14.32;91.20
65864;SHT30;52639;51.180;20.460;2023-07-13T23:35:33;14.15;91.36
65864;SHT30;52639;51.180;20.460;2023-07-13T23:39:36;14.04;91.30
65864;SHT30;52639;51.180;20.460;2023-07-13T23:43:39;13.94;91.30
65864;SHT30;52639;51.180;20.460;2023-07-13T23:47:42;13.64;91.47
65864;SHT30;52639;51.180;20.460;2023-07-13T23:51:48;13.54;91.74
65864;SHT30;52639;51.180;20.460;2023-07-13T23:55:52;13.50;91.55
65864;SHT30;52639;51.180;20.460;2023-07-13T23:59:54;13.34;91.64
